createdAt,value
2024-01-05T00:03:36.362Z,3.60
2024-01-05T00:07:39.806Z,3.60
2024-01-05T00:11:41.792Z,3.50
2024-01-05T00:15:43.915Z,3.60
2024-01-05T00:19:45.939Z,3.70
2024-01-05T00:23:49.052Z,3.70
2024-01-05T00:27:54.296Z,3.70
2024-01-05T00:31:56.455Z,3.50
2024-01-05T00:36:00.480Z,3.60
2024-01-05T00:40:03.737Z,3.80
2024-01-05T00:44:05.718Z,3.40
2024-01-05T00:48:08.139Z,3.80
2024-01-05T00:52:10.832Z,3.40
2024-01-05T00:56:12.756Z,3.20
2024-01-05T01:00:15.175Z,3.30
2024-01-05T01:04:17.472Z,3.40
2024-01-05T01:08:19.626Z,3.60
2024-01-05T01:12:21.601Z,3.50
2024-01-05T01:16:23.660Z,3.70
2024-01-05T01:20:25.675Z,3.80
2024-01-05T01:24:27.677Z,4.20
2024-01-05T01:28:29.651Z,4.40
2024-01-05T01:32:32.806Z,4.30
2024-01-05T01:36:34.875Z,4.10
2024-01-05T01:40:36.874Z,4.10
2024-01-05T01:44:38.895Z,3.90
2024-01-05T01:48:43.822Z,3.70
2024-01-05T01:52:48.654Z,3.80
2024-01-05T01:56:51.477Z,4.80
2024-01-05T02:00:53.911Z,3.80
2024-01-05T02:04:57.572Z,3.70
2024-01-05T02:08:59.613Z,3.50
2024-01-05T02:13:02.182Z,3.80
2024-01-05T02:17:04.204Z,2.80
2024-01-05T02:21:07.998Z,3.70
2024-01-05T02:25:10.317Z,3.60
2024-01-05T02:29:13.089Z,3.60
2024-01-05T02:33:15.388Z,3.50
2024-01-05T02:37:17.418Z,3.50
2024-01-05T02:41:19.444Z,4.30
2024-01-05T02:45:22.683Z,3.30
2024-01-05T02:49:24.732Z,3.40
2024-01-05T02:53:26.732Z,3.40
2024-01-05T02:57:28.793Z,3.20
2024-01-05T03:01:30.875Z,3.10
2024-01-05T03:05:32.900Z,3.20
2024-01-05T03:09:34.865Z,3.80
2024-01-05T03:13:37.008Z,3.10
2024-01-05T03:17:39.081Z,5.80
2024-01-05T03:21:42.337Z,3.10
2024-01-05T03:25:45.794Z,2.00
2024-01-05T03:29:47.705Z,3.60
2024-01-05T03:33:49.862Z,3.30
2024-01-05T03:37:51.876Z,3.30
2024-01-05T03:41:54.402Z,3.50
2024-01-05T03:45:56.430Z,3.20
2024-01-05T03:49:58.421Z,3.10
2024-01-05T03:54:00.675Z,3.50
2024-01-05T03:58:02.667Z,3.10
2024-01-05T04:02:04.797Z,3.50
2024-01-05T04:06:06.800Z,3.80
2024-01-05T04:10:09.970Z,4.20
2024-01-05T04:14:11.989Z,3.90
2024-01-05T04:18:14.496Z,4.10
2024-01-05T04:22:16.617Z,4.20
2024-01-05T04:26:19.635Z,4.50
2024-01-05T04:30:22.450Z,4.20
2024-01-05T04:34:24.741Z,3.90
2024-01-05T04:38:26.802Z,3.80
2024-01-05T04:42:29.821Z,3.80
2024-01-05T04:46:31.828Z,3.70
2024-01-05T04:50:33.754Z,3.60
2024-01-05T04:54:35.945Z,3.60
2024-01-05T04:58:37.909Z,3.70
2024-01-05T05:02:39.908Z,3.70
2024-01-05T05:06:41.958Z,3.70
2024-01-05T05:10:44.177Z,3.60
2024-01-05T05:14:46.163Z,3.80
2024-01-05T05:18:49.736Z,3.70
2024-01-05T05:22:51.742Z,3.90
2024-01-05T05:26:53.758Z,3.60
2024-01-05T05:30:55.901Z,3.60
2024-01-05T05:34:57.986Z,3.50
2024-01-05T05:39:00.032Z,3.50
2024-01-05T05:43:01.969Z,3.60
2024-01-05T05:47:04.043Z,3.60
2024-01-05T05:51:06.020Z,3.30
2024-01-05T05:55:08.444Z,3.20
2024-01-05T05:59:10.613Z,3.20
2024-01-05T06:03:14.339Z,3.10
2024-01-05T06:07:16.752Z,2.90
2024-01-05T06:11:19.787Z,3.00
2024-01-05T06:15:22.035Z,2.90
2024-01-05T06:19:24.066Z,2.80
2024-01-05T06:23:26.053Z,2.60
2024-01-05T06:27:33.153Z,2.70
2024-01-05T06:31:40.863Z,3.10
2024-01-05T06:35:42.944Z,3.00
2024-01-05T06:39:44.938Z,3.20
2024-01-05T06:43:46.891Z,3.10
2024-01-05T06:47:48.898Z,3.00
2024-01-05T06:51:51.131Z,3.50
2024-01-05T06:55:53.142Z,3.20
2024-01-05T06:59:55.141Z,3.10
2024-01-05T07:03:57.191Z,3.10
2024-01-05T07:07:59.272Z,3.10
2024-01-05T07:12:01.351Z,3.00
2024-01-05T07:16:04.025Z,3.10
2024-01-05T07:20:06.397Z,3.20
2024-01-05T07:24:08.398Z,2.70
2024-01-05T07:28:10.372Z,3.10
2024-01-05T07:32:14.608Z,3.10
2024-01-05T07:36:16.543Z,3.00
2024-01-05T07:40:19.744Z,3.30
2024-01-05T07:44:21.712Z,3.60
2024-01-05T07:48:24.006Z,3.70
2024-01-05T07:52:26.118Z,4.10
2024-01-05T07:56:28.083Z,4.10
2024-01-05T08:00:30.180Z,3.90
2024-01-05T08:04:32.166Z,3.80
2024-01-05T08:08:34.143Z,4.10
2024-01-05T08:12:36.140Z,4.00
2024-01-05T08:16:38.229Z,4.10
2024-01-05T08:20:40.190Z,4.10
2024-01-05T08:24:42.117Z,3.90
2024-01-05T08:28:44.072Z,3.80
2024-01-05T08:32:47.631Z,3.90
2024-01-05T08:36:49.618Z,4.10
2024-01-05T08:40:53.955Z,4.10
2024-01-05T08:44:56.060Z,4.20
2024-01-05T08:48:58.289Z,4.30
2024-01-05T08:53:00.284Z,4.40
2024-01-05T08:57:02.258Z,4.20
2024-01-05T09:01:04.459Z,4.60
2024-01-05T09:05:06.829Z,4.70
2024-01-05T09:09:08.945Z,4.50
2024-01-05T09:13:11.069Z,4.80
2024-01-05T09:17:14.067Z,4.60
2024-01-05T09:21:16.283Z,4.70
2024-01-05T09:25:18.311Z,2.90
2024-01-05T09:29:20.401Z,5.10
2024-01-05T09:33:23.250Z,5.30
2024-01-05T09:37:25.363Z,5.50
2024-01-05T09:41:27.415Z,5.70
2024-01-05T09:45:30.020Z,6.20
2024-01-05T09:49:36.603Z,6.70
2024-01-05T09:53:39.805Z,6.50
2024-01-05T09:57:45.361Z,6.00
2024-01-05T10:01:51.392Z,6.40
2024-01-05T10:05:56.456Z,6.70
2024-01-05T10:09:59.847Z,6.90
2024-01-05T10:14:04.525Z,6.90
2024-01-05T10:18:19.956Z,6.90
2024-01-05T10:22:24.035Z,5.70
2024-01-05T10:26:27.249Z,6.80
2024-01-05T10:30:32.345Z,7.00
2024-01-05T10:34:35.459Z,6.80
2024-01-05T10:38:37.512Z,7.10
2024-01-05T10:42:39.980Z,7.40
2024-01-05T10:46:43.865Z,7.70
2024-01-05T10:50:46.466Z,8.20
2024-01-05T10:54:50.946Z,8.60
2024-01-05T10:58:53.671Z,8.50
2024-01-05T11:03:19.574Z,8.80
2024-01-05T11:07:24.558Z,9.10
2024-01-05T11:11:44.862Z,9.10
2024-01-05T11:16:18.487Z,9.60
2024-01-05T11:20:34.849Z,9.10
2024-01-05T11:24:37.977Z,8.50
2024-01-05T11:28:40.681Z,8.60
2024-01-05T11:32:47.364Z,8.60
2024-01-05T11:36:49.886Z,8.30
2024-01-05T11:40:51.873Z,8.50
2024-01-05T11:44:54.152Z,8.30
2024-01-05T11:48:56.489Z,8.00
2024-01-05T11:53:18.482Z,7.80
2024-01-05T11:57:20.559Z,7.70
2024-01-05T12:01:23.283Z,7.90
2024-01-05T12:05:25.340Z,7.80
2024-01-05T12:09:27.745Z,8.00
2024-01-05T12:13:32.013Z,8.10
2024-01-05T12:17:34.035Z,8.10
2024-01-05T12:21:36.122Z,8.10
2024-01-05T12:25:40.932Z,8.00
2024-01-05T12:29:44.022Z,7.90
2024-01-05T12:33:47.280Z,7.90
2024-01-05T12:37:58.684Z,7.90
2024-01-05T12:42:00.815Z,8.10
2024-01-05T12:46:05.222Z,8.10
2024-01-05T12:50:23.854Z,8.00
2024-01-05T12:54:26.873Z,8.10
2024-01-05T12:58:30.373Z,8.00
2024-01-05T13:02:39.853Z,7.90
2024-01-05T13:06:44.212Z,7.80
2024-01-05T13:10:46.234Z,7.70
2024-01-05T13:14:48.231Z,7.70
2024-01-05T13:18:50.335Z,7.60
2024-01-05T13:22:54.206Z,7.90
2024-01-05T13:26:56.209Z,7.90
2024-01-05T13:30:59.255Z,8.00
2024-01-05T13:35:01.426Z,8.00
2024-01-05T13:39:03.782Z,8.20
2024-01-05T13:43:05.778Z,8.20
2024-01-05T13:47:07.717Z,8.20
2024-01-05T13:51:09.742Z,8.10
2024-01-05T13:55:11.955Z,8.20
2024-01-05T13:59:13.912Z,8.50
2024-01-05T14:03:16.292Z,10.60
2024-01-05T14:07:18.514Z,8.50
2024-01-05T14:11:20.531Z,8.60
2024-01-05T14:15:22.569Z,8.90
2024-01-05T14:19:25.812Z,8.60
2024-01-05T14:23:27.853Z,8.60
2024-01-05T14:27:29.822Z,8.80
2024-01-05T14:31:36.633Z,8.80
2024-01-05T14:35:41.728Z,8.90
2024-01-05T14:39:43.713Z,8.80
2024-01-05T14:43:46.043Z,9.00
2024-01-05T14:47:48.120Z,9.00
2024-01-05T14:51:50.592Z,9.00
2024-01-05T14:55:52.542Z,8.60
2024-01-05T14:59:54.899Z,8.80
2024-01-05T15:03:57.873Z,8.40
2024-01-05T15:08:00.440Z,8.20
2024-01-05T15:12:02.608Z,8.40
2024-01-05T15:16:05.501Z,8.30
2024-01-05T15:20:10.801Z,8.60
2024-01-05T15:24:12.858Z,8.40
2024-01-05T15:28:15.475Z,8.40
2024-01-05T15:32:17.431Z,8.60
2024-01-05T15:36:19.571Z,8.50
2024-01-05T15:40:30.722Z,8.40
2024-01-05T15:44:33.606Z,8.50
2024-01-05T15:48:36.306Z,8.40
2024-01-05T15:52:38.342Z,8.40
2024-01-05T15:56:40.704Z,8.50
2024-01-05T16:00:42.941Z,8.30
2024-01-05T16:04:45.056Z,8.10
2024-01-05T16:08:49.541Z,8.10
2024-01-05T16:12:51.610Z,7.90
2024-01-05T16:16:58.354Z,7.80
2024-01-05T16:21:00.582Z,7.70
2024-01-05T16:25:02.565Z,7.80
2024-01-05T16:29:04.523Z,7.60
2024-01-05T16:33:06.871Z,7.60
2024-01-05T16:37:08.983Z,7.60
2024-01-05T16:41:11.085Z,7.40
2024-01-05T16:45:13.708Z,6.90
2024-01-05T16:49:15.819Z,7.20
2024-01-05T16:53:18.056Z,7.60
2024-01-05T16:57:20.047Z,7.50
2024-01-05T17:01:22.303Z,7.20
2024-01-05T17:05:28.137Z,7.00
2024-01-05T17:09:33.372Z,7.30
2024-01-05T17:13:38.324Z,5.90
2024-01-05T17:17:40.398Z,6.80
2024-01-05T17:21:45.777Z,7.10
2024-01-05T17:25:47.774Z,7.30
2024-01-05T17:29:49.984Z,7.10
2024-01-05T17:33:52.195Z,7.30
2024-01-05T17:37:54.284Z,5.90
2024-01-05T17:41:56.224Z,7.20
2024-01-05T17:46:03.742Z,7.00
2024-01-05T17:50:06.187Z,4.90
2024-01-05T17:54:08.426Z,6.90
2024-01-05T17:58:10.479Z,6.50
2024-01-05T18:02:12.433Z,6.70
2024-01-05T18:06:14.596Z,6.40
2024-01-05T18:10:16.931Z,6.20
2024-01-05T18:14:20.262Z,6.10
2024-01-05T18:18:22.441Z,6.00
2024-01-05T18:22:24.481Z,5.90
2024-01-05T18:26:36.762Z,6.20
2024-01-05T18:30:39.067Z,6.00
2024-01-05T18:34:45.992Z,5.80
2024-01-05T18:38:48.908Z,5.70
2024-01-05T18:42:51.401Z,5.70
2024-01-05T18:46:54.361Z,5.90
2024-01-05T18:50:56.388Z,5.90
2024-01-05T18:54:58.928Z,5.80
2024-01-05T18:59:01.087Z,5.70
2024-01-05T19:03:03.421Z,5.80
2024-01-05T19:07:05.455Z,6.60
2024-01-05T19:11:07.461Z,5.60
2024-01-05T19:15:09.823Z,5.80
2024-01-05T19:19:15.886Z,5.50
2024-01-05T19:23:20.658Z,5.70
2024-01-05T19:27:22.776Z,3.10
2024-01-05T19:31:26.233Z,5.50
2024-01-05T19:35:28.688Z,5.80
2024-01-05T19:39:30.708Z,5.50
2024-01-05T19:43:32.986Z,5.40
2024-01-05T19:47:34.950Z,5.30
2024-01-05T19:51:44.870Z,5.30
2024-01-05T19:55:46.850Z,4.90
2024-01-05T19:59:49.262Z,5.40
2024-01-05T20:03:51.357Z,5.70
2024-01-05T20:07:57.632Z,5.50
2024-01-05T20:11:59.829Z,5.70
2024-01-05T20:16:01.922Z,5.80
2024-01-05T20:20:05.666Z,5.70
2024-01-05T20:24:07.853Z,5.80
2024-01-05T20:28:10.485Z,5.50
2024-01-05T20:32:12.555Z,5.90
2024-01-05T20:36:17.671Z,5.70
2024-01-05T20:40:19.856Z,6.00
2024-01-05T20:44:23.393Z,6.00
2024-01-05T20:48:25.501Z,5.90
2024-01-05T20:52:27.926Z,5.70
2024-01-05T20:56:29.941Z,5.80
2024-01-05T21:00:33.374Z,6.40
2024-01-05T21:04:35.444Z,6.60
2024-01-05T21:08:37.465Z,6.40
2024-01-05T21:12:39.462Z,6.30
2024-01-05T21:16:42.449Z,6.70
2024-01-05T21:20:44.532Z,6.60
2024-01-05T21:24:49.205Z,6.60
2024-01-05T21:28:51.311Z,6.50
2024-01-05T21:32:54.582Z,6.40
2024-01-05T21:36:56.604Z,5.70
2024-01-05T21:40:58.584Z,6.60
2024-01-05T21:45:00.656Z,6.50
2024-01-05T21:49:02.784Z,6.80
2024-01-05T21:53:06.341Z,6.70
2024-01-05T21:57:08.347Z,6.50
2024-01-05T22:01:10.520Z,6.70
2024-01-05T22:05:12.529Z,6.80
2024-01-05T22:09:14.566Z,7.10
2024-01-05T22:13:17.003Z,6.70
2024-01-05T22:17:19.142Z,6.90
2024-01-05T22:21:21.160Z,7.20
2024-01-05T22:25:23.156Z,7.30
2024-01-05T22:29:25.175Z,7.50
2024-01-05T22:33:27.257Z,7.50
2024-01-05T22:37:29.282Z,7.60
2024-01-05T22:41:31.559Z,7.70
2024-01-05T22:45:33.518Z,7.70
2024-01-05T22:49:40.924Z,7.70
2024-01-05T22:53:44.068Z,7.50
2024-01-05T22:57:46.039Z,7.30
2024-01-05T23:01:48.467Z,7.50
2024-01-05T23:05:50.480Z,7.00
2024-01-05T23:09:52.573Z,7.50
2024-01-05T23:13:55.205Z,7.30
2024-01-05T23:17:57.275Z,7.30
2024-01-05T23:21:59.386Z,7.60
2024-01-05T23:26:02.389Z,7.50
2024-01-05T23:30:07.333Z,7.60
2024-01-05T23:34:16.215Z,7.40
2024-01-05T23:38:19.567Z,6.80
2024-01-05T23:42:21.539Z,7.20
2024-01-05T23:46:23.596Z,7.40
2024-01-05T23:50:25.588Z,7.40
2024-01-05T23:54:27.780Z,7.60
2024-01-05T23:58:29.798Z,7.40
